Time;durP1;ratioP1;P1;durP2;ratioP2;P2;SDS_P1;SDS_P2;PMS_P1;PMS_P2;Temp;Humidity;BMP_temperature;BMP_pressure;BME280_temperature;BME280_humidity;BME280_pressure;Samples;Min_cycle;Max_cycle;Signal;HPM_P1;HPM_P2
2023/05/06 00:00:31;;;;;;;32.88;24.23;;;;;;;-146.25;100.00;52216.13;2071473;28;35392;-68
2023/05/06 00:01:33;;;;;;;28.73;22.85;;;;;;;-146.25;100.00;52210.03;2071223;28;33817;-69
2023/05/06 00:02:34;;;;;;;34.92;24.98;;;;;;;-146.25;100.00;52185.72;2070593;28;36982;-69
2023/05/06 00:03:36;;;;;;;31.08;23.55;;;;;;;-146.25;100.00;52244.50;2071928;28;20923;-69
2023/05/06 00:04:38;;;;;;;38.10;24.60;;;;;;;-146.25;100.00;52214.09;2071224;28;37878;-69
2023/05/06 00:05:41;;;;;;;35.58;25.17;;;;;;;-146.25;100.00;52206.00;2071931;28;33280;-69
2023/05/06 00:06:43;;;;;;;33.08;23.48;;;;;;;-146.25;100.00;52197.88;2071259;28;36135;-69
2023/05/06 00:07:47;;;;;;;33.70;23.88;;;;;;;-146.25;100.00;52173.56;2071558;28;37723;-69
2023/05/06 00:08:49;;;;;;;32.80;24.50;;;;;;;-146.25;100.00;52216.13;2072472;28;20102;-69
2023/05/06 00:09:51;;;;;;;36.38;25.30;;;;;;;-146.25;100.00;52189.78;2070935;28;35048;-69
2023/05/06 00:10:54;;;;;;;31.88;24.17;;;;;;;-146.25;100.00;52220.19;2071244;28;20050;-69
2023/05/06 00:11:55;;;;;;;36.33;23.20;;;;;;;-146.25;100.00;52203.97;2072404;28;20042;-69
2023/05/06 00:12:57;;;;;;;36.00;24.55;;;;;;;-146.25;100.00;52216.13;2071410;28;34464;-69
2023/05/06 00:13:59;;;;;;;34.75;24.60;;;;;;;-146.25;100.00;52238.44;2071883;28;35345;-69
2023/05/06 00:15:01;;;;;;;40.17;24.33;;;;;;;-146.25;100.00;52185.72;2071586;28;35658;-69
2023/05/06 00:16:03;;;;;;;36.30;24.25;;;;;;;-146.25;100.00;52195.84;2071875;28;36317;-69
2023/05/06 00:17:05;;;;;;;36.70;24.23;;;;;;;-146.25;100.00;52218.16;2072000;28;20089;-68
2023/05/06 00:18:07;;;;;;;40.75;24.67;;;;;;;-146.25;100.00;52226.25;2070618;28;39573;-69
2023/05/06 00:19:09;;;;;;;38.67;24.95;;;;;;;-146.25;100.00;52197.88;2070586;28;34825;-68
2023/05/06 00:20:11;;;;;;;31.90;25.27;;;;;;;-146.25;100.00;52212.06;2072057;28;20054;-69
2023/05/06 00:21:13;;;;;;;36.15;24.02;;;;;;;-146.25;100.00;52230.31;2071371;28;35797;-68
2023/05/06 00:22:14;;;;;;;38.80;25.80;;;;;;;-146.25;100.00;52214.09;2071673;28;20042;-69
2023/05/06 00:23:16;;;;;;;40.45;26.30;;;;;;;-146.25;100.00;52201.94;2071378;28;39325;-67
2023/05/06 00:24:18;;;;;;;36.83;26.08;;;;;;;-146.25;100.00;52195.84;2071814;28;20950;-68
2023/05/06 00:25:20;;;;;;;38.60;25.23;;;;;;;-146.25;100.00;52216.13;2071659;28;34313;-69
2023/05/06 00:26:21;;;;;;;40.63;25.98;;;;;;;-146.25;100.00;52222.22;2070936;28;35605;-69
2023/05/06 00:27:23;;;;;;;35.60;25.77;;;;;;;-146.25;100.00;52191.81;2071573;28;20981;-69
2023/05/06 00:28:25;;;;;;;40.70;27.23;;;;;;;-146.25;100.00;52187.75;2079842;28;20161;-68
2023/05/06 00:29:27;;;;;;;38.85;27.00;;;;;;;-146.25;100.00;52218.16;2079117;28;30522;-69
2023/05/06 00:30:30;;;;;;;42.88;27.77;;;;;;;-146.25;100.00;52201.94;2078975;28;28285;-68
2023/05/06 00:31:31;;;;;;;48.13;28.85;;;;;;;-146.25;100.00;52226.25;2071560;28;26215;-68
2023/05/06 00:32:33;;;;;;;46.15;28.92;;;;;;;-146.25;100.00;52230.31;2071669;28;30202;-68
2023/05/06 00:33:35;;;;;;;47.67;28.23;;;;;;;-146.25;100.00;52220.19;2072309;28;20812;-69
2023/05/06 00:34:37;;;;;;;45.53;29.52;;;;;;;-146.25;100.00;52197.88;2071183;28;33083;-69
2023/05/06 00:35:38;;;;;;;50.55;29.42;;;;;;;-146.25;100.00;52216.13;2071634;28;29220;-69
2023/05/06 00:36:43;;;;;;;45.88;29.17;;;;;;;-146.25;100.00;52216.13;2079639;28;20038;-69
2023/05/06 00:37:45;;;;;;;46.03;29.30;;;;;;;-146.25;100.00;52199.91;2079243;28;30536;-69
2023/05/06 00:38:48;;;;;;;46.00;29.17;;;;;;;-146.25;100.00;52214.09;2070704;28;29349;-69
2023/05/06 00:39:50;;;;;;;44.45;29.10;;;;;;;-146.25;100.00;52201.94;2071589;28;27651;-69
2023/05/06 00:40:51;;;;;;;45.15;30.27;;;;;;;-146.25;100.00;52220.19;2070562;28;32623;-69
2023/05/06 00:41:58;;;;;;;49.95;30.90;;;;;;;-146.25;100.00;52254.66;2071376;28;20046;-69
2023/05/06 00:43:00;;;;;;;47.10;30.02;;;;;;;-146.25;100.00;52234.38;2070775;28;31868;-69
2023/05/06 00:44:01;;;;;;;53.10;32.38;;;;;;;-146.25;100.00;52214.09;2071992;28;27951;-69
2023/05/06 00:45:04;;;;;;;51.50;30.33;;;;;;;-146.25;100.00;52181.66;2071890;28;20252;-69
2023/05/06 00:46:08;;;;;;;51.55;32.30;;;;;;;-146.25;100.00;52234.38;2072077;28;20042;-69
2023/05/06 00:47:11;;;;;;;56.78;33.50;;;;;;;-146.25;100.00;52234.38;2071430;28;20043;-69
2023/05/06 00:48:15;;;;;;;56.67;32.35;;;;;;;-146.25;100.00;52201.94;2071425;28;31644;-69
2023/05/06 00:49:17;;;;;;;57.78;32.47;;;;;;;-146.25;100.00;52187.75;2078432;28;21107;-69
2023/05/06 00:50:18;;;;;;;57.55;32.30;;;;;;;-146.25;100.00;52210.03;2072093;28;20816;-69
2023/05/06 00:51:21;;;;;;;55.53;32.33;;;;;;;-146.25;100.00;52218.16;2070921;28;29762;-69
2023/05/06 00:52:23;;;;;;;56.88;34.00;;;;;;;-146.25;100.00;52206.00;2071069;28;29532;-69
2023/05/06 00:53:24;;;;;;;53.95;32.58;;;;;;;-146.25;100.00;52232.34;2079248;28;20092;-69
2023/05/06 00:54:28;;;;;;;57.47;31.80;;;;;;;-146.25;100.00;52242.50;2078643;28;33060;-69
2023/05/06 00:55:30;;;;;;;66.20;34.00;;;;;;;-146.25;100.00;52232.34;2079678;28;20168;-69
2023/05/06 00:56:32;;;;;;;63.30;33.90;;;;;;;-146.25;100.00;52222.22;2078772;28;27120;-69
2023/05/06 00:57:34;;;;;;;66.43;35.17;;;;;;;-146.25;100.00;52216.13;2079244;28;20085;-69
2023/05/06 00:58:37;;;;;;;65.50;35.25;;;;;;;-146.25;100.00;52193.81;2079136;28;20045;-69
2023/05/06 00:59:39;;;;;;;71.07;34.28;;;;;;;-146.25;100.00;52216.13;2070930;28;32731;-69
2023/05/06 01:00:41;;;;;;;70.00;35.33;;;;;;;-146.25;100.00;52210.03;2071892;28;20859;-69
2023/05/06 01:01:43;;;;;;;66.97;35.95;;;;;;;-146.25;100.00;52187.75;2070444;28;33169;-69
2023/05/06 01:02:48;;;;;;;70.68;37.05;;;;;;;-146.25;100.00;52218.16;2070920;28;26941;-69
2023/05/06 01:03:53;;;;;;;63.05;35.78;;;;;;;-146.25;100.00;52226.25;2071395;28;20049;-67
2023/05/06 01:04:55;;;;;;;65.95;36.53;;;;;;;-146.25;100.00;52214.09;2071582;28;20711;-70
2023/05/06 01:06:06;;;;;;;67.55;34.70;;;;;;;-146.25;100.00;52230.31;2071581;28;23234;-69
2023/05/06 01:07:20;;;;;;;65.13;35.08;;;;;;;-146.25;100.00;52238.44;2071903;28;20077;-69
2023/05/06 01:08:50;;;;;;;62.67;35.47;;;;;;;-146.25;100.00;52193.81;2079240;28;23662;-69
2023/05/06 01:10:18;;;;;;;61.78;34.63;;;;;;;-146.25;100.00;52230.31;2069942;28;33121;-69
2023/05/06 01:11:43;;;;;;;60.67;34.38;;;;;;;-146.25;100.00;52220.19;2078840;28;24553;-68
2023/05/06 01:12:54;;;;;;;68.28;37.25;;;;;;;-146.25;100.00;52220.19;2070830;28;27603;-69
2023/05/06 01:14:06;;;;;;;67.75;38.60;;;;;;;-146.25;100.00;52210.03;2074625;28;37373;-69
2023/05/06 01:15:20;;;;;;;66.22;40.33;;;;;;;-146.25;100.00;52222.22;2077565;28;20046;-70
2023/05/06 01:16:25;;;;;;;66.55;38.70;;;;;;;-146.25;100.00;52187.75;2062697;28;32522;-69
2023/05/06 01:17:30;;;;;;;64.18;38.33;;;;;;;-146.25;100.00;52201.94;2065000;28;28549;-70
2023/05/06 01:18:32;;;;;;;72.45;38.63;;;;;;;-146.25;100.00;52214.09;2070704;28;30837;-70
2023/05/06 01:19:45;;;;;;;69.82;39.22;;;;;;;-146.25;100.00;52210.03;2070849;28;20807;-70
2023/05/06 01:20:51;;;;;;;63.58;37.65;;;;;;;-146.25;100.00;52244.50;2079150;28;20160;-69
2023/05/06 01:21:57;;;;;;;73.75;39.22;;;;;;;-146.25;100.00;52242.50;2070983;28;20172;-70
2023/05/06 01:23:00;;;;;;;69.70;39.88;;;;;;;-146.25;100.00;52214.09;2071646;28;21834;-70
2023/05/06 01:24:03;;;;;;;75.15;40.65;;;;;;;-146.25;100.00;52222.22;2070693;28;20128;-70
2023/05/06 01:25:05;;;;;;;70.95;38.55;;;;;;;-146.25;100.00;52238.44;2072015;28;24505;-69
2023/05/06 01:26:07;;;;;;;74.32;39.78;;;;;;;-146.25;100.00;52242.50;2071467;28;20039;-70
2023/05/06 01:27:11;;;;;;;72.35;39.75;;;;;;;-146.25;100.00;52201.94;2078486;28;31999;-70
2023/05/06 01:28:15;;;;;;;73.97;39.03;;;;;;;-146.25;100.00;52218.16;2078354;28;24125;-67
2023/05/06 01:29:17;;;;;;;82.72;40.20;;;;;;;-146.25;100.00;52201.94;2071837;28;21016;-70
2023/05/06 01:30:21;;;;;;;86.20;41.20;;;;;;;-146.25;100.00;52222.22;2070327;28;27230;-68
2023/05/06 01:31:28;;;;;;;89.00;41.95;;;;;;;-146.25;100.00;52248.56;2071505;28;21435;-70
2023/05/06 01:33:08;;;;;;;84.90;40.38;;;;;;;-146.25;100.00;52220.19;2078610;28;20836;-70
2023/05/06 01:34:39;;;;;;;66.68;35.88;;;;;;;-146.25;100.00;52230.31;2071131;28;26448;-69
2023/05/06 01:36:12;;;;;;;64.97;34.55;;;;;;;-146.25;100.00;52191.81;2070819;28;31097;-70
2023/05/06 01:37:39;;;;;;;65.47;32.67;;;;;;;-146.25;100.00;52226.25;2068720;28;27838;-70
2023/05/06 01:39:02;;;;;;;65.10;32.97;;;;;;;-146.25;100.00;52181.66;2064181;28;30931;-70
2023/05/06 01:40:06;;;;;;;53.72;31.65;;;;;;;-146.25;100.00;52248.56;2071126;28;29481;-70
2023/05/06 01:41:13;;;;;;;68.25;33.63;;;;;;;-146.25;100.00;52228.28;2070848;28;31957;-69
2023/05/06 01:42:16;;;;;;;60.85;32.22;;;;;;;-146.25;100.00;52222.22;2071081;28;26222;-70
2023/05/06 01:43:19;;;;;;;67.28;32.95;;;;;;;-146.25;100.00;52228.28;2071345;28;29631;-69
2023/05/06 01:44:22;;;;;;;65.60;33.67;;;;;;;-146.25;100.00;52203.97;2078673;28;30389;-70
2023/05/06 01:45:27;;;;;;;60.88;30.38;;;;;;;-146.25;100.00;52232.34;2070454;28;23541;-70
2023/05/06 01:46:30;;;;;;;62.33;31.73;;;;;;;-146.25;100.00;52226.25;2063055;28;25754;-70
2023/05/06 01:47:35;;;;;;;58.42;31.88;;;;;;;-146.25;100.00;52220.19;2070518;28;24674;-68
2023/05/06 01:48:38;;;;;;;65.25;34.30;;;;;;;-146.25;100.00;52268.84;2071374;28;30338;-69
2023/05/06 01:49:40;;;;;;;56.35;30.42;;;;;;;-146.25;100.00;52197.88;2070839;28;29536;-69
2023/05/06 01:50:44;;;;;;;56.63;31.58;;;;;;;-146.25;100.00;52189.78;2070782;28;32420;-70
2023/05/06 01:51:51;;;;;;;61.05;31.38;;;;;;;-146.25;100.00;52238.44;2072545;28;27012;-69
2023/05/06 01:52:59;;;;;;;55.65;29.70;;;;;;;-146.25;100.00;52214.09;2071993;28;27171;-70
2023/05/06 01:54:02;;;;;;;60.65;30.67;;;;;;;-146.25;100.00;52230.31;2072659;28;20195;-69
2023/05/06 01:55:05;;;;;;;54.75;29.77;;;;;;;-146.25;100.00;52210.03;2072475;28;25422;-70
2023/05/06 01:56:08;;;;;;;50.08;27.80;;;;;;;-146.25;100.00;52210.03;2071930;28;29471;-70
2023/05/06 01:57:10;;;;;;;68.32;33.83;;;;;;;-146.25;100.00;52252.63;2072848;28;20086;-70
2023/05/06 01:58:12;;;;;;;65.47;35.00;;;;;;;-146.25;100.00;52206.00;2080196;28;20046;-70
2023/05/06 01:59:15;;;;;;;60.30;33.47;;;;;;;-146.25;100.00;52234.38;2080433;28;20803;-69
2023/05/06 02:00:17;;;;;;;56.17;30.50;;;;;;;-146.25;100.00;52214.09;2072648;28;20030;-69
2023/05/06 02:01:19;;;;;;;59.38;30.08;;;;;;;-146.25;100.00;52193.81;2072380;28;33513;-70
2023/05/06 02:02:20;;;;;;;69.50;34.65;;;;;;;-146.25;100.00;52210.03;2080254;28;24885;-70
2023/05/06 02:03:22;;;;;;;64.22;34.35;;;;;;;-146.25;100.00;52212.06;2079974;28;20033;-69
2023/05/06 02:04:25;;;;;;;63.42;33.30;;;;;;;-146.25;100.00;52212.06;2080101;28;25570;-70
2023/05/06 02:05:26;;;;;;;59.05;32.42;;;;;;;-146.25;100.00;52291.16;2080438;28;20140;-69
2023/05/06 02:06:31;;;;;;;67.85;33.70;;;;;;;-146.25;100.00;52240.47;2080496;28;20054;-70
2023/05/06 02:07:33;;;;;;;65.03;31.90;;;;;;;-146.25;100.00;52226.25;2080223;28;20870;-70
2023/05/06 02:08:34;;;;;;;69.57;34.47;;;;;;;-146.25;100.00;52222.22;2072671;28;20038;-69
2023/05/06 02:09:37;;;;;;;69.05;33.80;;;;;;;-146.25;100.00;52183.69;2071778;28;20736;-70
2023/05/06 02:10:39;;;;;;;64.65;32.97;;;;;;;-146.25;100.00;52232.34;2072174;28;20057;-70
2023/05/06 02:11:42;;;;;;;64.47;32.30;;;;;;;-146.25;100.00;52224.25;2071808;28;20043;-70
2023/05/06 02:12:45;;;;;;;62.53;31.70;;;;;;;-146.25;100.00;52238.44;2072812;28;20074;-69
2023/05/06 02:13:47;;;;;;;67.88;33.55;;;;;;;-146.25;100.00;52244.50;2080184;28;26096;-68
2023/05/06 02:14:49;;;;;;;69.32;35.00;;;;;;;-146.25;100.00;52252.63;2080584;28;20112;-69
2023/05/06 02:15:54;;;;;;;69.05;30.90;;;;;;;-146.25;100.00;52226.25;2080377;28;23888;-70
2023/05/06 02:16:56;;;;;;;67.68;34.53;;;;;;;-146.25;100.00;52226.25;2072177;28;20045;-70
2023/05/06 02:17:58;;;;;;;71.28;35.65;;;;;;;-146.25;100.00;52220.19;2071772;28;22812;-69
2023/05/06 02:19:02;;;;;;;73.90;36.83;;;;;;;-146.25;100.00;52222.22;2080466;28;20033;-70
2023/05/06 02:20:06;;;;;;;76.95;36.03;;;;;;;-146.25;100.00;52210.03;2079765;28;20038;-69
2023/05/06 02:21:12;;;;;;;78.07;37.60;;;;;;;-146.25;100.00;52214.09;2072165;28;20038;-70
2023/05/06 02:22:14;;;;;;;75.38;34.55;;;;;;;-146.25;100.00;52226.25;2072840;28;20047;-69
2023/05/06 02:23:16;;;;;;;68.70;31.55;;;;;;;-146.25;100.00;52193.81;2072051;28;20097;-70
2023/05/06 02:24:17;;;;;;;66.78;31.95;;;;;;;-146.25;100.00;52230.31;2063279;28;29841;-70
2023/05/06 02:25:20;;;;;;;64.15;32.13;;;;;;;-146.25;100.00;52210.03;2071954;28;26133;-70
2023/05/06 02:26:21;;;;;;;68.72;34.22;;;;;;;-146.25;100.00;52203.97;2079828;28;26974;-70
2023/05/06 02:27:23;;;;;;;68.85;34.35;;;;;;;-146.25;100.00;52206.00;2072208;28;32944;-69
2023/05/06 02:28:25;;;;;;;60.20;31.05;;;;;;;-146.25;100.00;52222.22;2071896;28;34725;-69
2023/05/06 02:29:29;;;;;;;72.28;31.67;;;;;;;-146.25;100.00;52260.72;2079498;28;24898;-69
2023/05/06 02:30:35;;;;;;;62.17;31.10;;;;;;;-146.25;100.00;52224.25;2079512;28;36309;-70
2023/05/06 02:31:37;;;;;;;63.83;28.92;;;;;;;-146.25;100.00;52268.84;2079819;28;28102;-69
2023/05/06 02:32:39;;;;;;;67.28;32.53;;;;;;;-146.25;100.00;52220.19;2079521;28;24893;-70
2023/05/06 02:33:41;;;;;;;75.53;33.35;;;;;;;-146.25;100.00;52242.50;2080215;28;29019;-69
2023/05/06 02:34:44;;;;;;;66.55;32.15;;;;;;;-146.25;100.00;52193.81;2080074;28;20041;-69
2023/05/06 02:35:46;;;;;;;69.40;34.60;;;;;;;-146.25;100.00;52226.25;2080057;28;25313;-70
2023/05/06 02:36:50;;;;;;;68.18;33.55;;;;;;;-146.25;100.00;52222.22;2080096;28;20958;-70
2023/05/06 02:37:52;;;;;;;71.85;33.83;;;;;;;-146.25;100.00;52246.53;2080204;28;25559;-69
2023/05/06 02:38:53;;;;;;;68.50;33.78;;;;;;;-146.25;100.00;52240.47;2072418;28;27355;-69
2023/05/06 02:39:55;;;;;;;76.63;33.38;;;;;;;-146.25;100.00;52246.53;2072536;28;20043;-69
2023/05/06 02:40:57;;;;;;;67.53;31.73;;;;;;;-146.25;100.00;52222.22;2072080;28;33860;-70
2023/05/06 02:42:01;;;;;;;69.72;31.08;;;;;;;-146.25;100.00;52270.88;2072572;28;20042;-69
2023/05/06 02:43:03;;;;;;;65.22;32.20;;;;;;;-146.25;100.00;52242.50;2079856;28;20804;-69
2023/05/06 02:44:05;;;;;;;70.20;35.35;;;;;;;-146.25;100.00;52250.59;2063372;28;26869;-68
2023/05/06 02:45:07;;;;;;;69.43;33.20;;;;;;;-146.25;100.00;52240.47;2063287;28;27897;-70
2023/05/06 02:46:10;;;;;;;65.68;33.33;;;;;;;-146.25;100.00;52250.59;2071382;28;33171;-68
2023/05/06 02:47:11;;;;;;;73.10;34.50;;;;;;;-146.25;100.00;52262.75;2072087;28;27465;-69
2023/05/06 02:48:13;;;;;;;68.28;32.97;;;;;;;-146.25;100.00;52236.41;2072347;28;20043;-69
2023/05/06 02:49:15;;;;;;;66.70;33.00;;;;;;;-146.25;100.00;52264.78;2071607;28;30566;-69
2023/05/06 02:50:19;;;;;;;64.15;33.53;;;;;;;-146.25;100.00;52256.69;2072351;28;29454;-69
2023/05/06 02:51:21;;;;;;;68.07;33.90;;;;;;;-146.25;100.00;52248.56;2071932;28;33258;-70
2023/05/06 02:52:23;;;;;;;65.03;31.60;;;;;;;-146.25;100.00;52254.66;2079764;28;26136;-69
2023/05/06 02:53:24;;;;;;;61.72;32.13;;;;;;;-146.25;100.00;52262.75;2079358;28;29325;-69
2023/05/06 02:54:28;;;;;;;61.30;31.25;;;;;;;-146.25;100.00;52272.91;2072307;28;20134;-69
2023/05/06 02:55:30;;;;;;;61.65;32.67;;;;;;;-146.25;100.00;52264.78;2072406;28;20455;-69
2023/05/06 02:56:35;;;;;;;65.13;32.55;;;;;;;-146.25;100.00;52226.25;2080385;28;26045;-69
2023/05/06 02:57:39;;;;;;;72.13;33.22;;;;;;;-146.25;100.00;52244.50;2079234;28;25562;-69
2023/05/06 02:58:43;;;;;;;72.13;34.13;;;;;;;-146.25;100.00;52240.47;2072693;28;21173;-69
2023/05/06 02:59:44;;;;;;;64.28;33.80;;;;;;;-146.25;100.00;52216.13;2072551;28;23314;-69
2023/05/06 03:00:48;;;;;;;77.22;34.55;;;;;;;-146.25;100.00;52230.31;2063913;28;20162;-69
2023/05/06 03:01:50;;;;;;;66.20;32.10;;;;;;;-146.25;100.00;52242.50;2063924;28;20035;-69
2023/05/06 03:02:52;;;;;;;63.92;32.08;;;;;;;-146.25;100.00;52244.50;2071831;28;20772;-70
2023/05/06 03:03:54;;;;;;;64.20;34.10;;;;;;;-146.25;100.00;52266.81;2079201;28;22156;-70
2023/05/06 03:04:55;;;;;;;66.85;33.65;;;;;;;-146.25;100.00;52266.81;2079767;28;31989;-69
2023/05/06 03:05:57;;;;;;;73.47;34.20;;;;;;;-146.25;100.00;52238.44;2072488;28;20136;-69
2023/05/06 03:06:59;;;;;;;55.88;30.38;;;;;;;-146.25;100.00;52244.50;2072801;28;20115;-70
2023/05/06 03:08:01;;;;;;;58.75;31.80;;;;;;;-146.25;100.00;52266.81;2079846;28;21077;-69
2023/05/06 03:09:05;;;;;;;60.42;31.65;;;;;;;-146.25;100.00;52220.19;2080169;28;20176;-69
2023/05/06 03:10:07;;;;;;;60.10;29.85;;;;;;;-146.25;100.00;52254.66;2079970;28;20038;-70
2023/05/06 03:11:11;;;;;;;67.13;29.80;;;;;;;-146.25;100.00;52246.53;2080082;28;20910;-69
2023/05/06 03:12:14;;;;;;;62.10;31.67;;;;;;;-146.25;100.00;52218.16;2079778;28;20046;-69
2023/05/06 03:13:16;;;;;;;56.88;30.15;;;;;;;-146.25;100.00;52242.50;2079931;28;20044;-70
2023/05/06 03:14:17;;;;;;;62.28;31.10;;;;;;;-146.25;100.00;52254.66;2080000;28;20034;-69
2023/05/06 03:15:19;;;;;;;64.55;30.00;;;;;;;-146.25;100.00;52232.34;2071424;28;20051;-69
2023/05/06 03:16:24;;;;;;;60.78;31.73;;;;;;;-146.25;100.00;52222.22;2071926;28;20042;-69
2023/05/06 03:17:29;;;;;;;58.05;28.85;;;;;;;-146.25;100.00;52238.44;2079577;28;20034;-69
2023/05/06 03:18:31;;;;;;;65.75;30.83;;;;;;;-146.25;100.00;52260.72;2071565;28;20047;-69
2023/05/06 03:19:33;;;;;;;62.20;31.77;;;;;;;-146.25;100.00;52236.41;2072440;28;20046;-69
2023/05/06 03:20:35;;;;;;;68.25;31.10;;;;;;;-146.25;100.00;52244.50;2079135;28;20030;-69
2023/05/06 03:21:39;;;;;;;68.57;32.47;;;;;;;-146.25;100.00;52240.47;2080021;28;20160;-69
2023/05/06 03:22:42;;;;;;;71.88;31.08;;;;;;;-146.25;100.00;52240.47;2079363;28;20164;-69
2023/05/06 03:23:43;;;;;;;57.78;31.80;;;;;;;-146.25;100.00;52248.56;2071931;28;20256;-69
2023/05/06 03:24:45;;;;;;;75.50;31.63;;;;;;;-146.25;100.00;52232.34;2071869;28;20949;-69
2023/05/06 03:25:47;;;;;;;65.95;30.83;;;;;;;-146.25;100.00;52293.19;2079977;28;20038;-69
2023/05/06 03:26:49;;;;;;;74.90;33.20;;;;;;;-146.25;100.00;52242.50;2079644;28;20050;-69
2023/05/06 03:27:51;;;;;;;82.55;33.30;;;;;;;-146.25;100.00;52252.63;2080189;28;20260;-69
2023/05/06 03:28:55;;;;;;;67.35;33.42;;;;;;;-146.25;100.00;52248.56;2079765;28;20050;-69
2023/05/06 03:29:58;;;;;;;62.00;32.53;;;;;;;-146.25;100.00;52232.34;2079935;28;20042;-69
2023/05/06 03:31:00;;;;;;;98.25;31.67;;;;;;;-146.25;100.00;52238.44;2079639;28;20054;-69
2023/05/06 03:32:04;;;;;;;70.90;34.17;;;;;;;-146.25;100.00;52228.28;2071668;28;20046;-69
2023/05/06 03:33:12;;;;;;;74.25;33.75;;;;;;;-146.25;100.00;52246.53;2072886;28;20096;-70
2023/05/06 03:34:16;;;;;;;69.78;31.52;;;;;;;-146.25;100.00;52226.25;2071933;28;20038;-69
2023/05/06 03:35:19;;;;;;;79.55;32.53;;;;;;;-146.25;100.00;52236.41;2071105;28;20581;-70
2023/05/06 03:36:26;;;;;;;69.05;31.02;;;;;;;-146.25;100.00;52234.38;2072412;28;20035;-70
2023/05/06 03:37:29;;;;;;;73.28;33.78;;;;;;;-146.25;100.00;52206.00;2079137;28;20931;-70
2023/05/06 03:38:31;;;;;;;123.53;33.33;;;;;;;-146.25;100.00;52254.66;2079964;28;20147;-70
2023/05/06 03:39:36;;;;;;;127.70;30.65;;;;;;;-146.25;100.00;52270.88;2079671;28;20049;-69
2023/05/06 03:40:38;;;;;;;196.40;35.00;;;;;;;-146.25;100.00;52187.75;2079827;28;20176;-69
2023/05/06 03:41:41;;;;;;;163.15;31.42;;;;;;;-146.25;100.00;52250.59;2071856;28;20039;-70
2023/05/06 03:42:44;;;;;;;254.32;31.73;;;;;;;-146.25;100.00;52240.47;2072040;28;20046;-68
2023/05/06 03:43:46;;;;;;;271.90;31.73;;;;;;;-146.25;100.00;52218.16;2079686;28;20230;-69
2023/05/06 03:44:50;;;;;;;219.82;29.52;;;;;;;-146.25;100.00;52226.25;2079922;28;20050;-70
2023/05/06 03:45:52;;;;;;;403.13;37.00;;;;;;;-146.25;100.00;52242.50;2079728;28;20917;-69
2023/05/06 03:46:54;;;;;;;412.00;35.28;;;;;;;-146.25;100.00;52250.59;2079874;28;20095;-70
2023/05/06 03:47:59;;;;;;;177.80;33.00;;;;;;;-146.25;100.00;52228.28;2063188;28;20137;-70
2023/05/06 03:49:02;;;;;;;125.50;33.67;;;;;;;-146.25;100.00;52260.72;2064453;28;20097;-69
2023/05/06 03:50:05;;;;;;;102.47;30.23;;;;;;;-146.25;100.00;52230.31;2071106;28;20038;-69
2023/05/06 03:51:08;;;;;;;106.97;33.20;;;;;;;-146.25;100.00;52246.53;2079974;28;20163;-69
2023/05/06 03:52:10;;;;;;;130.70;34.47;;;;;;;-146.25;100.00;52248.56;2079561;28;20041;-70
2023/05/06 03:53:13;;;;;;;132.10;33.40;;;;;;;-146.25;100.00;52248.56;2079809;28;20882;-69
2023/05/06 03:54:17;;;;;;;192.45;34.20;;;;;;;-146.25;100.00;52260.72;2079440;28;20061;-70
2023/05/06 03:55:20;;;;;;;91.68;33.85;;;;;;;-146.25;100.00;52250.59;2079594;28;20152;-69
2023/05/06 03:56:22;;;;;;;83.65;31.50;;;;;;;-146.25;100.00;52218.16;2079560;28;20050;-69
2023/05/06 03:57:27;;;;;;;111.50;33.60;;;;;;;-146.25;100.00;52236.41;2080003;28;20042;-68
2023/05/06 03:58:29;;;;;;;113.68;31.48;;;;;;;-146.25;100.00;52250.59;2079200;28;20633;-69
2023/05/06 03:59:31;;;;;;;101.43;32.72;;;;;;;-146.25;100.00;52236.41;2079866;28;20805;-68
2023/05/06 04:00:34;;;;;;;166.10;32.72;;;;;;;-146.25;100.00;52240.47;2079401;28;20041;-68
2023/05/06 04:01:36;;;;;;;76.18;30.33;;;;;;;-146.25;100.00;52262.75;2079821;28;21259;-69
2023/05/06 04:02:38;;;;;;;112.25;31.73;;;;;;;-146.25;100.00;52240.47;2079243;28;20041;-68
2023/05/06 04:03:40;;;;;;;90.38;31.10;;;;;;;-146.25;100.00;52232.34;2079528;28;20918;-69
2023/05/06 04:04:42;;;;;;;192.98;31.70;;;;;;;-146.25;100.00;52307.38;2079529;28;20042;-68
2023/05/06 04:05:45;;;;;;;240.05;31.20;;;;;;;-146.25;100.00;52234.38;2079015;28;27489;-70
2023/05/06 04:06:49;;;;;;;350.00;32.35;;;;;;;-146.25;100.00;52230.31;2071070;28;20046;-69
2023/05/06 04:07:51;;;;;;;203.52;30.45;;;;;;;-146.25;100.00;52303.31;2072084;28;26062;-70
2023/05/06 04:08:55;;;;;;;82.53;29.40;;;;;;;-146.25;100.00;52256.69;2079305;28;20168;-70
2023/05/06 04:09:57;;;;;;;123.95;31.02;;;;;;;-146.25;100.00;52242.50;2079548;28;20038;-69
2023/05/06 04:11:06;;;;;;;113.38;30.73;;;;;;;-146.25;100.00;52210.03;2079121;28;20795;-69
2023/05/06 04:12:10;;;;;;;252.15;32.42;;;;;;;-146.25;100.00;52248.56;2063085;28;20054;-70
2023/05/06 04:13:11;;;;;;;178.50;29.88;;;;;;;-146.25;100.00;52246.53;2064023;28;26800;-70
2023/05/06 04:14:17;;;;;;;209.45;32.22;;;;;;;-146.25;100.00;52248.56;2079529;28;20038;-68
2023/05/06 04:15:19;;;;;;;249.55;31.90;;;;;;;-146.25;100.00;52244.50;2079586;28;20034;-68
2023/05/06 04:16:25;;;;;;;172.15;30.13;;;;;;;-146.25;100.00;52250.59;2079739;28;20116;-69
2023/05/06 04:17:27;;;;;;;125.75;29.83;;;;;;;-146.25;100.00;52260.72;2070920;28;25746;-70
2023/05/06 04:18:33;;;;;;;282.08;31.35;;;;;;;-146.25;100.00;52274.94;2072385;28;20069;-70
2023/05/06 04:19:39;;;;;;;131.65;28.73;;;;;;;-146.25;100.00;52244.50;2079509;28;20869;-69
2023/05/06 04:20:41;;;;;;;369.27;34.78;;;;;;;-146.25;100.00;52266.81;2079038;28;20038;-69
2023/05/06 04:21:46;;;;;;;238.52;34.35;;;;;;;-146.25;100.00;52252.63;2078896;28;20207;-70
2023/05/06 04:22:49;;;;;;;166.18;30.10;;;;;;;-146.25;100.00;52274.94;2079264;28;20972;-69
2023/05/06 04:23:51;;;;;;;192.18;32.15;;;;;;;-146.25;100.00;52254.66;2078931;28;20847;-70
2023/05/06 04:25:00;;;;;;;170.55;31.35;;;;;;;-146.25;100.00;52250.59;2079328;28;20046;-69
2023/05/06 04:26:02;;;;;;;373.13;36.28;;;;;;;-146.25;100.00;52287.09;2079055;28;20953;-70
2023/05/06 04:27:06;;;;;;;236.60;33.08;;;;;;;-146.25;100.00;52238.44;2071242;28;20042;-70
2023/05/06 04:28:11;;;;;;;416.40;38.42;;;;;;;-146.25;100.00;52238.44;2072246;28;20186;-69
2023/05/06 04:29:12;;;;;;;262.15;33.65;;;;;;;-146.25;100.00;52272.91;2079398;28;20955;-70
2023/05/06 04:30:23;;;;;;;;;;;;;;;-146.25;100.00;52262.75;2080319;28;20053;-69
2023/05/06 04:31:28;;;;;;;150.02;29.10;;;;;;;-146.25;100.00;52274.94;2078954;28;19929;-69
2023/05/06 04:32:35;;;;;;;126.35;29.63;;;;;;;-146.25;100.00;52262.75;2079361;28;20101;-69
2023/05/06 04:33:39;;;;;;;82.90;29.38;;;;;;;-146.25;100.00;52287.09;2079114;28;20030;-69
2023/05/06 04:34:46;;;;;;;207.77;29.77;;;;;;;-146.25;100.00;52210.03;2071540;28;20911;-70
2023/05/06 04:35:52;;;;;;;144.80;30.20;;;;;;;-146.25;100.00;52228.28;2071915;28;20100;-69
2023/05/06 04:36:55;;;;;;;247.23;30.02;;;;;;;-146.25;100.00;52238.44;2079140;28;20041;-68
2023/05/06 04:38:13;;;;;;;74.38;26.67;;;;;;;-146.25;100.00;52270.88;2070963;28;20039;-69
2023/05/06 04:39:18;;;;;;;178.63;28.27;;;;;;;-146.25;100.00;52260.72;2073895;28;20149;-69
2023/05/06 04:40:22;;;;;;;222.65;28.92;;;;;;;-146.25;100.00;52287.09;2079499;28;20874;-69
2023/05/06 04:41:29;;;;;;;68.90;29.05;;;;;;;-146.25;100.00;52281.00;2079431;28;20054;-69
2023/05/06 04:42:32;;;;;;;63.45;29.92;;;;;;;-146.25;100.00;52291.16;2079416;28;20042;-69
2023/05/06 04:43:43;;;;;;;86.47;27.05;;;;;;;-146.25;100.00;52260.72;2079229;28;20115;-70